Time;durP1;ratioP1;P1;durP2;ratioP2;P2;SDS_P1;SDS_P2;PMS_P1;PMS_P2;Temp;Humidity;BMP_temperature;BMP_pressure;BME280_temperature;BME280_humidity;BME280_pressure;Samples;Min_cycle;Max_cycle;Signal;HPM_P1;HPM_P2
2023/04/11 00:00:03;;;;;;;11.10;10.57;;;;;;;;;;4248975;28;20077;-60
2023/04/11 00:02:23;;;;;;;9.93;9.52;;;;;;;;;;4249055;28;20062;-60
2023/04/11 00:04:44;;;;;;;9.77;9.27;;;;;;;;;;4245886;28;20366;-60
2023/04/11 00:07:06;;;;;;;12.13;11.43;;;;;;;;;;4245198;28;20062;-60
2023/04/11 00:09:26;;;;;;;18.00;16.33;;;;;;;;;;4246033;28;20042;-60
2023/04/11 00:11:47;;;;;;;18.00;16.17;;;;;;;;;;4248367;28;20235;-60
2023/04/11 00:14:07;;;;;;;21.50;16.48;;;;;;;;;;4242270;28;20038;-60
2023/04/11 00:16:27;;;;;;;20.08;17.95;;;;;;;;;;4247029;28;20118;-60
2023/04/11 00:18:47;;;;;;;18.60;16.90;;;;;;;;;;4246985;28;20229;-60
2023/04/11 00:21:09;;;;;;;16.88;15.38;;;;;;;;;;4245648;28;20399;-60
2023/04/11 00:23:29;;;;;;;14.05;13.10;;;;;;;;;;4242179;28;20055;-60
2023/04/11 00:25:49;;;;;;;13.98;12.73;;;;;;;;;;4248674;28;20066;-60
2023/04/11 00:28:10;;;;;;;13.07;12.30;;;;;;;;;;4246295;28;20082;-60
2023/04/11 00:30:30;;;;;;;13.40;12.68;;;;;;;;;;4247093;28;20235;-60
2023/04/11 00:32:50;;;;;;;15.82;14.82;;;;;;;;;;4243372;28;20047;-60
2023/04/11 00:35:11;;;;;;;14.90;13.80;;;;;;;;;;4242992;28;20310;-60
2023/04/11 00:37:34;;;;;;;15.50;14.57;;;;;;;;;;4243917;28;20365;-60
2023/04/11 00:39:55;;;;;;;13.68;12.82;;;;;;;;;;4251268;28;20039;-60
2023/04/11 00:42:16;;;;;;;11.93;11.23;;;;;;;;;;4252469;28;20047;-60
2023/04/11 00:44:36;;;;;;;12.32;11.80;;;;;;;;;;4243534;28;20056;-60
2023/04/11 00:46:56;;;;;;;12.20;11.52;;;;;;;;;;4247119;28;20051;-60
2023/04/11 00:49:17;;;;;;;12.82;12.25;;;;;;;;;;4248227;28;20051;-60
2023/04/11 00:51:37;;;;;;;14.13;13.10;;;;;;;;;;4249337;28;20120;-60
2023/04/11 00:53:58;;;;;;;15.45;14.43;;;;;;;;;;4248236;28;20035;-60
2023/04/11 00:56:18;;;;;;;15.38;13.98;;;;;;;;;;4243457;28;20050;-60
2023/04/11 00:58:41;;;;;;;11.85;11.43;;;;;;;;;;4248214;28;20059;-60
2023/04/11 01:01:07;;;;;;;;;;;;;;;;;;4248918;28;20362;-60
2023/04/11 01:03:28;;;;;;;10.98;10.68;;;;;;;;;;4237402;28;19987;-60
2023/04/11 01:05:53;;;;;;;12.48;11.98;;;;;;;;;;4236355;28;20076;-60
2023/04/11 01:08:14;;;;;;;11.98;11.35;;;;;;;;;;4247569;28;20050;-60
2023/04/11 01:10:34;;;;;;;12.38;11.90;;;;;;;;;;4247602;28;20157;-60
2023/04/11 01:12:55;;;;;;;10.38;9.88;;;;;;;;;;4245174;28;20047;-60
2023/04/11 01:15:15;;;;;;;9.85;9.52;;;;;;;;;;4245996;28;20042;-60
2023/04/11 01:17:36;;;;;;;12.02;11.52;;;;;;;;;;4244137;28;20042;-60
2023/04/11 01:19:57;;;;;;;12.07;11.43;;;;;;;;;;4243305;28;20051;-60
2023/04/11 01:22:19;;;;;;;12.75;11.95;;;;;;;;;;4243186;28;20111;-60
2023/04/11 01:24:39;;;;;;;11.57;11.07;;;;;;;;;;4252101;28;20184;-60
2023/04/11 01:27:01;;;;;;;13.63;12.93;;;;;;;;;;4242792;28;20074;-60
2023/04/11 01:29:21;;;;;;;12.07;11.70;;;;;;;;;;4245397;28;20065;-60
2023/04/11 01:31:41;;;;;;;11.95;11.55;;;;;;;;;;4250583;28;20080;-60
2023/04/11 01:34:02;;;;;;;11.68;11.05;;;;;;;;;;4254438;28;20075;-60
2023/04/11 01:36:22;;;;;;;13.60;13.10;;;;;;;;;;4249510;28;20233;-60
2023/04/11 01:38:43;;;;;;;11.43;10.82;;;;;;;;;;4249153;28;20073;-60
2023/04/11 01:41:04;;;;;;;13.20;12.88;;;;;;;;;;4251849;28;20115;-60
2023/04/11 01:43:24;;;;;;;11.40;10.90;;;;;;;;;;4249786;28;20081;-60
2023/04/11 01:45:44;;;;;;;11.65;11.25;;;;;;;;;;4246975;28;20095;-60
2023/04/11 01:48:06;;;;;;;11.27;10.90;;;;;;;;;;4248372;28;20049;-60
2023/04/11 01:50:26;;;;;;;12.85;12.43;;;;;;;;;;4250934;27;20042;-60
2023/04/11 01:52:50;;;;;;;13.00;12.60;;;;;;;;;;4248804;28;20095;-60
2023/04/11 01:55:10;;;;;;;11.35;10.75;;;;;;;;;;4248910;28;20042;-60
2023/04/11 01:57:30;;;;;;;12.15;11.65;;;;;;;;;;4248934;28;20050;-60
2023/04/11 01:59:50;;;;;;;20.33;18.02;;;;;;;;;;4252815;28;20133;-60
2023/04/11 02:02:10;;;;;;;12.07;11.48;;;;;;;;;;4245706;28;20062;-60
2023/04/11 02:04:31;;;;;;;12.05;11.40;;;;;;;;;;4249519;28;20084;-60
2023/04/11 02:06:51;;;;;;;12.80;12.00;;;;;;;;;;4247167;28;20085;-60
2023/04/11 02:09:11;;;;;;;14.40;13.82;;;;;;;;;;4249734;28;20045;-60
2023/04/11 02:11:32;;;;;;;12.43;11.93;;;;;;;;;;4248057;28;20050;-60
2023/04/11 02:13:52;;;;;;;12.95;12.45;;;;;;;;;;4249067;28;20365;-60
2023/04/11 02:16:13;;;;;;;10.73;10.43;;;;;;;;;;4246901;28;20046;-60
2023/04/11 02:18:36;;;;;;;11.55;11.15;;;;;;;;;;4248047;28;20046;-60
2023/04/11 02:20:57;;;;;;;11.63;11.13;;;;;;;;;;4247993;28;20369;-60
2023/04/11 02:23:17;;;;;;;11.13;10.82;;;;;;;;;;4249191;28;20154;-60
2023/04/11 02:25:38;;;;;;;12.10;11.07;;;;;;;;;;4247973;28;20121;-60
2023/04/11 02:27:58;;;;;;;10.48;10.25;;;;;;;;;;4250237;28;20050;-60
2023/04/11 02:30:18;;;;;;;12.27;11.80;;;;;;;;;;4245665;28;20369;-60
2023/04/11 02:32:39;;;;;;;11.43;11.05;;;;;;;;;;4240056;28;20262;-60
2023/04/11 02:35:00;;;;;;;14.38;13.77;;;;;;;;;;4243126;28;20050;-60
2023/04/11 02:37:20;;;;;;;14.90;14.50;;;;;;;;;;4252048;28;20376;-60
2023/04/11 02:39:40;;;;;;;17.48;16.67;;;;;;;;;;4249736;28;20074;-60
2023/04/11 02:42:01;;;;;;;24.00;22.88;;;;;;;;;;4246411;28;20077;-60
2023/04/11 02:44:21;;;;;;;31.23;29.77;;;;;;;;;;4242859;28;20084;-60
2023/04/11 02:46:42;;;;;;;19.25;18.38;;;;;;;;;;4245019;28;20080;-60
2023/04/11 02:49:03;;;;;;;16.00;14.68;;;;;;;;;;4245856;28;20039;-60
2023/04/11 02:51:23;;;;;;;15.35;14.65;;;;;;;;;;4234065;28;20050;-60
2023/04/11 02:53:44;;;;;;;11.63;11.35;;;;;;;;;;4244316;28;20239;-60
2023/04/11 02:56:05;;;;;;;12.15;11.75;;;;;;;;;;4247440;28;20091;-60
2023/04/11 02:58:27;;;;;;;13.55;13.20;;;;;;;;;;4249375;28;20053;-60
2023/04/11 03:00:50;;;;;;;13.80;13.20;;;;;;;;;;4247064;28;20046;-60
2023/04/11 03:03:10;;;;;;;14.43;13.60;;;;;;;;;;4243237;28;20075;-60
2023/04/11 03:05:31;;;;;;;15.23;14.38;;;;;;;;;;4248972;28;20384;-60
2023/04/11 03:07:51;;;;;;;11.27;10.88;;;;;;;;;;4247595;28;20065;-60
2023/04/11 03:10:11;;;;;;;14.38;13.70;;;;;;;;;;4247813;28;20042;-60
2023/04/11 03:12:31;;;;;;;11.32;10.90;;;;;;;;;;4245397;28;20050;-60
2023/04/11 03:14:52;;;;;;;12.63;12.27;;;;;;;;;;4247963;28;20401;-60
2023/04/11 03:17:12;;;;;;;13.77;13.32;;;;;;;;;;4249215;28;20107;-60
2023/04/11 03:19:32;;;;;;;11.40;10.85;;;;;;;;;;4249318;28;20073;-60
2023/04/11 03:21:53;;;;;;;11.60;11.23;;;;;;;;;;4249404;28;20065;-60
2023/04/11 03:24:13;;;;;;;14.05;13.30;;;;;;;;;;4247534;28;20268;-60
2023/04/11 03:26:33;;;;;;;13.27;12.77;;;;;;;;;;4242936;28;20046;-60
2023/04/11 03:28:53;;;;;;;14.57;14.02;;;;;;;;;;4247576;28;20037;-60
2023/04/11 03:31:16;;;;;;;12.27;11.88;;;;;;;;;;4243598;28;20042;-60
2023/04/11 03:33:37;;;;;;;14.30;13.57;;;;;;;;;;4246734;28;20084;-60
2023/04/11 03:35:57;;;;;;;13.05;12.55;;;;;;;;;;4241876;28;20077;-60
2023/04/11 03:38:17;;;;;;;12.90;12.48;;;;;;;;;;4230881;28;20059;-60
2023/04/11 03:40:37;;;;;;;14.32;13.68;;;;;;;;;;4240344;28;20448;-60
2023/04/11 03:43:00;;;;;;;13.18;12.63;;;;;;;;;;4246207;28;20243;-61
2023/04/11 03:45:23;;;;;;;12.73;12.43;;;;;;;;;;4244407;28;20062;-60
2023/04/11 03:47:44;;;;;;;11.65;11.30;;;;;;;;;;4246808;28;20053;-60
2023/04/11 03:50:05;;;;;;;12.98;12.57;;;;;;;;;;4249412;28;20054;-60
2023/04/11 03:52:25;;;;;;;13.43;12.98;;;;;;;;;;4248736;28;20076;-60
2023/04/11 03:54:45;;;;;;;13.05;12.43;;;;;;;;;;4245021;28;20063;-60
2023/04/11 03:57:08;;;;;;;14.13;13.35;;;;;;;;;;4245007;28;20061;-60
2023/04/11 03:59:29;;;;;;;15.70;14.40;;;;;;;;;;4243755;28;20112;-60
2023/04/11 04:01:49;;;;;;;16.05;15.20;;;;;;;;;;4248141;28;20231;-60
2023/04/11 04:04:09;;;;;;;19.45;18.25;;;;;;;;;;4247658;28;20054;-60
2023/04/11 04:06:30;;;;;;;21.90;20.98;;;;;;;;;;4246269;28;20076;-60
2023/04/11 04:08:50;;;;;;;33.50;32.30;;;;;;;;;;4242001;28;20046;-60
2023/04/11 04:11:13;;;;;;;35.55;34.17;;;;;;;;;;4239949;28;20250;-60
2023/04/11 04:13:33;;;;;;;37.13;35.53;;;;;;;;;;4245128;28;20419;-60
2023/04/11 04:15:54;;;;;;;40.97;39.35;;;;;;;;;;4246647;28;20281;-60
2023/04/11 04:18:14;;;;;;;40.03;38.22;;;;;;;;;;4244906;28;20042;-60
2023/04/11 04:20:34;;;;;;;35.78;34.47;;;;;;;;;;4246711;28;20050;-60
2023/04/11 04:22:54;;;;;;;38.28;36.70;;;;;;;;;;4247526;28;20099;-60
2023/04/11 04:25:18;;;;;;;32.80;31.50;;;;;;;;;;4246103;28;20114;-60
2023/04/11 04:27:42;;;;;;;29.95;28.58;;;;;;;;;;4243079;28;20046;-60
2023/04/11 04:30:03;;;;;;;18.42;17.45;;;;;;;;;;4248071;28;20358;-60
2023/04/11 04:32:27;;;;;;;16.83;15.73;;;;;;;;;;4247329;28;20103;-60
2023/04/11 04:34:48;;;;;;;13.23;12.48;;;;;;;;;;4244430;28;20057;-60
2023/04/11 04:37:09;;;;;;;13.10;12.57;;;;;;;;;;4242407;28;20049;-60
2023/04/11 04:39:32;;;;;;;14.52;14.00;;;;;;;;;;4247076;28;20231;-60
2023/04/11 04:42:03;;;;;;;12.75;12.27;;;;;;;;;;4248548;28;20042;-60
2023/04/11 04:44:23;;;;;;;12.75;12.35;;;;;;;;;;4242964;28;20042;-61
2023/04/11 04:46:43;;;;;;;13.93;13.38;;;;;;;;;;4244467;28;20057;-60
2023/04/11 04:49:04;;;;;;;14.68;14.00;;;;;;;;;;4246735;28;20042;-60
2023/04/11 04:51:26;;;;;;;14.43;13.93;;;;;;;;;;4245520;28;20051;-60
2023/04/11 04:53:46;;;;;;;13.55;13.07;;;;;;;;;;4245176;28;20392;-61
2023/04/11 04:56:07;;;;;;;12.35;12.05;;;;;;;;;;4246586;28;20100;-60
2023/04/11 04:58:27;;;;;;;11.52;11.32;;;;;;;;;;4250243;28;20238;-60
2023/04/11 05:00:54;;;;;;;10.70;10.50;;;;;;;;;;4249492;28;20051;-60
2023/04/11 05:03:16;;;;;;;12.35;11.98;;;;;;;;;;4248217;28;20038;-60
2023/04/11 05:05:36;;;;;;;13.43;12.95;;;;;;;;;;4243936;28;20170;-60
2023/04/11 05:07:56;;;;;;;14.85;14.13;;;;;;;;;;4238839;28;20086;-60
2023/04/11 05:10:16;;;;;;;18.17;17.05;;;;;;;;;;4246897;28;20089;-60
2023/04/11 05:12:36;;;;;;;27.55;26.25;;;;;;;;;;4245638;28;20054;-60
2023/04/11 05:14:57;;;;;;;38.20;36.60;;;;;;;;;;4248562;28;20054;-60
2023/04/11 05:17:17;;;;;;;13.23;12.40;;;;;;;;;;4243322;28;20046;-61
2023/04/11 05:19:37;;;;;;;14.48;13.77;;;;;;;;;;4247356;28;20042;-61
2023/04/11 05:21:57;;;;;;;14.90;14.32;;;;;;;;;;4250394;28;20053;-61
2023/04/11 05:24:17;;;;;;;14.13;13.63;;;;;;;;;;4244593;28;20082;-61
2023/04/11 05:26:37;;;;;;;13.40;12.73;;;;;;;;;;4247092;28;20050;-61
2023/04/11 05:28:58;;;;;;;13.00;12.57;;;;;;;;;;4247086;28;20066;-61
2023/04/11 05:31:18;;;;;;;13.30;12.82;;;;;;;;;;4244810;28;20321;-61
2023/04/11 05:33:40;;;;;;;14.07;13.43;;;;;;;;;;4244028;28;20042;-61
2023/04/11 05:36:01;;;;;;;13.07;12.48;;;;;;;;;;4243107;27;20065;-61
2023/04/11 05:38:21;;;;;;;14.40;13.32;;;;;;;;;;4246196;28;20047;-61
2023/04/11 05:40:41;;;;;;;12.85;12.43;;;;;;;;;;4246633;28;20072;-61
2023/04/11 05:43:02;;;;;;;10.30;10.10;;;;;;;;;;4252842;28;20215;-61
2023/04/11 05:45:22;;;;;;;9.73;9.38;;;;;;;;;;4255899;28;20084;-60
2023/04/11 05:47:43;;;;;;;10.50;10.20;;;;;;;;;;4243211;28;20053;-60
2023/04/11 05:50:03;;;;;;;11.43;10.90;;;;;;;;;;4243702;28;20228;-60
2023/04/11 05:52:24;;;;;;;10.52;10.23;;;;;;;;;;4254144;28;20046;-60
2023/04/11 05:54:44;;;;;;;11.05;10.40;;;;;;;;;;4242781;28;20081;-60
2023/04/11 05:57:06;;;;;;;23.98;16.55;;;;;;;;;;4244773;28;20122;-60
2023/04/11 05:59:27;;;;;;;13.93;13.02;;;;;;;;;;4251054;28;20047;-60
2023/04/11 06:01:49;;;;;;;12.40;11.88;;;;;;;;;;4252390;28;20076;-60
2023/04/11 06:04:10;;;;;;;13.50;12.82;;;;;;;;;;4244974;28;20043;-61
2023/04/11 06:06:30;;;;;;;14.55;13.65;;;;;;;;;;4246497;28;20372;-61
2023/04/11 06:08:50;;;;;;;14.70;13.90;;;;;;;;;;4250796;28;20116;-61
2023/04/11 06:11:11;;;;;;;11.57;11.00;;;;;;;;;;4243689;28;20103;-60
2023/04/11 06:13:31;;;;;;;10.43;10.23;;;;;;;;;;4246689;28;20076;-60
2023/04/11 06:15:51;;;;;;;11.13;10.77;;;;;;;;;;4251748;28;20043;-61
2023/04/11 06:18:12;;;;;;;10.93;10.68;;;;;;;;;;4248649;28;20059;-60
2023/04/11 06:20:32;;;;;;;11.40;10.73;;;;;;;;;;4246558;28;20106;-60
2023/04/11 06:22:52;;;;;;;11.48;11.18;;;;;;;;;;4246917;28;20058;-60
2023/04/11 06:25:13;;;;;;;9.95;9.75;;;;;;;;;;4250989;28;20082;-60
2023/04/11 06:27:33;;;;;;;12.07;11.68;;;;;;;;;;4244489;28;20050;-61
2023/04/11 06:29:53;;;;;;;10.70;10.40;;;;;;;;;;4249029;28;20385;-60
2023/04/11 06:32:13;;;;;;;13.38;12.88;;;;;;;;;;4248830;28;20055;-60
2023/04/11 06:34:33;;;;;;;12.13;11.85;;;;;;;;;;4245407;28;20053;-61
2023/04/11 06:36:54;;;;;;;11.02;10.70;;;;;;;;;;4244138;27;20051;-60
2023/04/11 06:39:15;;;;;;;9.80;9.50;;;;;;;;;;4245459;28;20051;-61
2023/04/11 06:41:35;;;;;;;9.05;8.85;;;;;;;;;;4240769;28;20390;-60
2023/04/11 06:43:55;;;;;;;9.13;9.02;;;;;;;;;;4247871;28;20074;-61
2023/04/11 06:46:16;;;;;;;10.65;10.23;;;;;;;;;;4254156;28;20049;-60
2023/04/11 06:48:37;;;;;;;10.10;9.90;;;;;;;;;;4245214;28;20242;-60
2023/04/11 06:50:57;;;;;;;9.68;9.20;;;;;;;;;;4247932;28;20361;-60
2023/04/11 06:53:17;;;;;;;8.63;8.35;;;;;;;;;;4246545;28;20104;-60
2023/04/11 06:55:37;;;;;;;8.90;8.55;;;;;;;;;;4245644;28;20058;-61
2023/04/11 06:57:58;;;;;;;9.13;8.73;;;;;;;;;;4230835;28;20228;-61
2023/04/11 07:00:18;;;;;;;9.98;9.38;;;;;;;;;;4246913;28;20088;-60
2023/04/11 07:02:39;;;;;;;8.60;8.40;;;;;;;;;;4245682;28;20070;-60
2023/04/11 07:05:00;;;;;;;9.02;8.82;;;;;;;;;;4248445;28;20407;-61
2023/04/11 07:07:21;;;;;;;8.73;8.40;;;;;;;;;;4231913;28;20115;-60
2023/04/11 07:09:42;;;;;;;10.90;10.48;;;;;;;;;;4248877;28;20053;-60
2023/04/11 07:12:04;;;;;;;8.32;7.93;;;;;;;;;;4248750;28;20042;-60
2023/04/11 07:14:24;;;;;;;15.05;13.52;;;;;;;;;;4244898;28;20039;-60
2023/04/11 07:16:44;;;;;;;15.77;13.45;;;;;;;;;;4246136;28;20095;-60
2023/04/11 07:19:05;;;;;;;12.18;11.15;;;;;;;;;;4248303;28;20064;-60
2023/04/11 07:21:31;;;;;;;8.43;8.05;;;;;;;;;;4246940;28;20080;-60
2023/04/11 07:23:52;;;;;;;8.68;8.15;;;;;;;;;;4242825;28;20239;-61
2023/04/11 07:26:13;;;;;;;7.90;7.70;;;;;;;;;;4247949;28;20043;-60
2023/04/11 07:28:33;;;;;;;7.60;7.30;;;;;;;;;;4245255;28;20353;-60
2023/04/11 07:30:53;;;;;;;8.95;8.43;;;;;;;;;;4246758;28;20050;-60
2023/04/11 07:33:13;;;;;;;8.43;8.02;;;;;;;;;;4252053;28;20464;-60
2023/04/11 07:35:34;;;;;;;7.38;7.18;;;;;;;;;;4239455;27;20404;-60
2023/04/11 07:37:56;;;;;;;9.88;9.48;;;;;;;;;;4243138;28;20232;-60
2023/04/11 07:40:16;;;;;;;7.60;7.33;;;;;;;;;;4245107;28;20046;-60
2023/04/11 07:42:37;;;;;;;8.05;7.63;;;;;;;;;;4244692;28;20089;-60
2023/04/11 07:44:57;;;;;;;6.25;6.00;;;;;;;;;;4246152;28;20038;-60
2023/04/11 07:47:17;;;;;;;7.80;7.50;;;;;;;;;;4253221;27;20047;-60
2023/04/11 07:49:37;;;;;;;7.43;7.20;;;;;;;;;;4247261;28;20054;-60
2023/04/11 07:51:57;;;;;;;7.43;7.22;;;;;;;;;;4243584;28;20388;-60
2023/04/11 07:54:18;;;;;;;10.43;9.70;;;;;;;;;;4249368;28;20050;-60
2023/04/11 07:56:38;;;;;;;9.38;8.85;;;;;;;;;;4243259;28;20361;-60
2023/04/11 07:59:00;;;;;;;14.15;11.77;;;;;;;;;;4247349;28;20076;-60
2023/04/11 08:01:21;;;;;;;11.25;9.68;;;;;;;;;;4242963;28;20046;-60
2023/04/11 08:03:41;;;;;;;7.57;7.38;;;;;;;;;;4249190;28;20057;-60
2023/04/11 08:06:01;;;;;;;8.20;7.72;;;;;;;;;;4247536;28;20065;-60
2023/04/11 08:08:22;;;;;;;7.68;7.18;;;;;;;;;;4248806;28;20064;-60
2023/04/11 08:10:42;;;;;;;7.80;7.40;;;;;;;;;;4245344;28;20047;-60
2023/04/11 08:13:02;;;;;;;7.65;7.35;;;;;;;;;;4242377;28;20074;-60
2023/04/11 08:15:22;;;;;;;8.07;7.55;;;;;;;;;;4250057;28;20047;-60
2023/04/11 08:17:42;;;;;;;10.95;9.93;;;;;;;;;;4248351;28;20046;-61
2023/04/11 08:20:08;;;;;;;5.00;4.85;;;;;;;;;;4246685;28;20038;-60
2023/04/11 08:22:28;;;;;;;4.60;4.32;;;;;;;;;;4230339;28;20038;-60
2023/04/11 08:24:48;;;;;;;4.70;4.43;;;;;;;;;;4247378;28;20054;-60
2023/04/11 08:27:08;;;;;;;6.82;5.30;;;;;;;;;;4245602;28;20042;-60
2023/04/11 08:29:28;;;;;;;3.92;3.72;;;;;;;;;;4249665;28;20053;-60
2023/04/11 08:31:49;;;;;;;6.32;5.68;;;;;;;;;;4246866;28;20043;-60
2023/04/11 08:34:09;;;;;;;4.88;4.53;;;;;;;;;;4247992;28;20049;-60
2023/04/11 08:36:30;;;;;;;4.43;4.25;;;;;;;;;;4251994;27;20046;-60
2023/04/11 08:38:52;;;;;;;4.35;4.15;;;;;;;;;;4243664;28;20100;-60
2023/04/11 08:41:13;;;;;;;4.40;4.25;;;;;;;;;;4248864;28;20388;-60
2023/04/11 08:43:37;;;;;;;4.15;4.03;;;;;;;;;;4247470;28;20057;-60
2023/04/11 08:46:00;;;;;;;3.97;3.88;;;;;;;;;;4247166;28;20369;-60
2023/04/11 08:48:24;;;;;;;5.05;4.53;;;;;;;;;;4253558;28;20361;-60
2023/04/11 08:50:44;;;;;;;5.43;5.20;;;;;;;;;;4247138;28;20277;-60
2023/04/11 08:53:04;;;;;;;3.78;3.47;;;;;;;;;;4246435;28;20062;-60
2023/04/11 08:55:25;;;;;;;4.00;3.90;;;;;;;;;;4247257;28;20046;-60
2023/04/11 08:57:45;;;;;;;4.20;4.10;;;;;;;;;;4242637;28;20426;-60
2023/04/11 09:00:13;;;;;;;3.58;3.47;;;;;;;;;;4249390;27;20042;-60
2023/04/11 09:02:33;;;;;;;4.03;3.92;;;;;;;;;;4246832;28;20050;-60
2023/04/11 09:04:56;;;;;;;4.32;4.22;;;;;;;;;;4251361;28;20088;-60
2023/04/11 09:07:17;;;;;;;4.72;4.45;;;;;;;;;;4247535;28;20047;-60
2023/04/11 09:09:38;;;;;;;5.15;4.85;;;;;;;;;;4250480;28;20057;-60
2023/04/11 09:11:58;;;;;;;5.18;5.00;;;;;;;;;;4247490;28;20076;-60
2023/04/11 09:14:23;;;;;;;5.32;5.03;;;;;;;;;;4254130;28;20099;-60
2023/04/11 09:16:54;;;;;;;6.10;5.68;;;;;;;;;;4248926;28;20239;-60
2023/04/11 09:19:23;;;;;;;3.65;3.55;;;;;;;;;;4248796;28;20404;-60
2023/04/11 09:21:49;;;;;;;4.63;4.47;;;;;;;;;;4249162;28;20270;-59
2023/04/11 09:24:16;;;;;;;4.18;4.07;;;;;;;;;;4249212;28;20054;-60
2023/04/11 09:26:36;;;;;;;4.22;4.03;;;;;;;;;;4250148;28;20193;-60
2023/04/11 09:28:56;;;;;;;4.53;4.32;;;;;;;;;;4247940;28;20385;-60
2023/04/11 09:31:17;;;;;;;4.75;4.55;;;;;;;;;;4250113;28;20145;-60
2023/04/11 09:33:37;;;;;;;4.57;4.47;;;;;;;;;;4247346;28;20370;-60
2023/04/11 09:35:57;;;;;;;4.75;4.65;;;;;;;;;;4247331;28;20063;-60
2023/04/11 09:38:32;;;;;;;5.82;5.53;;;;;;;;;;4243880;28;20084;-60
2023/04/11 09:40:52;;;;;;;4.00;3.70;;;;;;;;;;4249223;28;20042;-60
2023/04/11 09:43:12;;;;;;;4.15;4.05;;;;;;;;;;4249421;28;20054;-60
2023/04/11 09:45:33;;;;;;;3.47;3.38;;;;;;;;;;4247874;28;20264;-60
2023/04/11 09:48:08;;;;;;;3.83;3.70;;;;;;;;;;4243630;28;20050;-60
2023/04/11 09:50:28;;;;;;;4.40;4.30;;;;;;;;;;4243605;28;20058;-60
2023/04/11 09:52:49;;;;;;;3.97;3.85;;;;;;;;;;4242915;28;20077;-60
2023/04/11 09:55:13;;;;;;;2.95;2.83;;;;;;;;;;4242340;28;20095;-60
2023/04/11 09:57:33;;;;;;;3.35;3.25;;;;;;;;;;4243665;28;20046;-60
2023/04/11 09:59:55;;;;;;;3.85;3.65;;;;;;;;;;4242233;28;20077;-60
2023/04/11 10:02:15;;;;;;;3.42;3.33;;;;;;;;;;4253885;28;20119;-60
2023/04/11 10:04:37;;;;;;;3.30;3.20;;;;;;;;;;4254292;28;20107;-60
2023/04/11 10:07:03;;;;;;;3.60;3.45;;;;;;;;;;4245686;28;20050;-60
2023/04/11 10:09:24;;;;;;;4.53;4.32;;;;;;;;;;4243757;28;20058;-60
2023/04/11 10:11:44;;;;;;;4.15;3.95;;;;;;;;;;4253000;27;20241;-60
2023/04/11 10:14:05;;;;;;;4.03;3.72;;;;;;;;;;4243407;28;20042;-60
2023/04/11 10:16:27;;;;;;;7.32;3.55;;;;;;;;;;4245687;28;20081;-60
2023/04/11 10:18:53;;;;;;;5.72;4.07;;;;;;;;;;4252577;28;20078;-59
2023/04/11 10:21:29;;;;;;;4.75;4.65;;;;;;;;;;4243611;28;20039;-60
2023/04/11 10:24:13;;;;;;;4.40;4.30;;;;;;;;;;4246980;28;20294;-60
2023/04/11 10:26:57;;;;;;;4.05;3.95;;;;;;;;;;4252123;28;20059;-60
2023/04/11 10:29:33;;;;;;;8.25;5.93;;;;;;;;;;4249944;28;20076;-60
2023/04/11 10:32:13;;;;;;;4.28;4.18;;;;;;;;;;4248715;28;20046;-59
2023/04/11 10:34:37;;;;;;;3.88;3.78;;;;;;;;;;4248272;28;20073;-60
2023/04/11 10:37:05;;;;;;;6.30;5.78;;;;;;;;;;4245281;27;20065;-60
2023/04/11 10:39:45;;;;;;;4.47;4.32;;;;;;;;;;4248656;28;20043;-60
2023/04/11 10:42:37;;;;;;;8.38;5.95;;;;;;;;;;4246918;28;20374;-59
2023/04/11 10:45:20;;;;;;;4.13;3.92;;;;;;;;;;4188236;28;20112;-60
2023/04/11 10:47:40;;;;;;;4.13;4.03;;;;;;;;;;4192891;28;20409;-60
2023/04/11 10:50:01;;;;;;;4.15;4.05;;;;;;;;;;4190911;28;20104;-59
2023/04/11 10:52:22;;;;;;;6.60;6.30;;;;;;;;;;4188349;28;20044;-60
2023/04/11 10:54:43;;;;;;;7.75;7.25;;;;;;;;;;4189893;28;20048;-60
2023/04/11 10:57:03;;;;;;;4.60;4.40;;;;;;;;;;4192832;28;20075;-60
2023/04/11 10:59:35;;;;;;;4.57;4.38;;;;;;;;;;4188670;28;20175;-60
2023/04/11 11:01:55;;;;;;;4.38;4.22;;;;;;;;;;4189132;28;20048;-60
2023/04/11 11:04:17;;;;;;;5.13;5.00;;;;;;;;;;4191077;28;20047;-60
2023/04/11 11:06:38;;;;;;;4.38;4.07;;;;;;;;;;4190382;28;20047;-60
2023/04/11 11:09:22;;;;;;;4.22;4.07;;;;;;;;;;4189074;28;20094;-59
2023/04/11 11:11:42;;;;;;;2.78;2.58;;;;;;;;;;4188747;28;20071;-59
2023/04/11 11:14:02;;;;;;;2.85;2.65;;;;;;;;;;4189042;28;20044;-60
2023/04/11 11:16:24;;;;;;;2.35;2.33;;;;;;;;;;4192431;28;20056;-60
2023/04/11 11:18:45;;;;;;;2.58;2.47;;;;;;;;;;4190080;28;20054;-59
2023/04/11 11:21:05;;;;;;;3.17;2.97;;;;;;;;;;4232618;28;20242;-60
2023/04/11 11:23:34;;;;;;;1.95;1.85;;;;;;;;;;4250747;28;20037;-60
2023/04/11 11:25:56;;;;;;;2.63;2.53;;;;;;;;;;4251989;28;20049;-60
2023/04/11 11:28:17;;;;;;;1.50;1.50;;;;;;;;;;4251908;28;20080;-59
2023/04/11 11:30:37;;;;;;;2.80;2.70;;;;;;;;;;4249947;28;20054;-59
2023/04/11 11:32:58;;;;;;;2.65;2.55;;;;;;;;;;4248890;28;20050;-60
2023/04/11 11:35:18;;;;;;;3.10;2.10;;;;;;;;;;4251185;28;20062;-60
2023/04/11 11:37:38;;;;;;;2.30;2.20;;;;;;;;;;4240090;28;20127;-60
2023/04/11 11:39:59;;;;;;;1.50;1.50;;;;;;;;;;4247958;28;20085;-59
2023/04/11 11:42:19;;;;;;;1.70;1.65;;;;;;;;;;4245876;28;20241;-60
2023/04/11 11:44:40;;;;;;;1.55;1.55;;;;;;;;;;4247041;28;20092;-60
2023/04/11 11:47:03;;;;;;;2.08;1.98;;;;;;;;;;4244016;28;20038;-60
2023/04/11 11:49:23;;;;;;;1.88;1.88;;;;;;;;;;4251707;28;20119;-60
2023/04/11 11:51:46;;;;;;;1.40;1.40;;;;;;;;;;4245018;28;20153;-60
2023/04/11 11:54:08;;;;;;;2.47;2.22;;;;;;;;;;4244980;28;20117;-59
2023/04/11 11:56:28;;;;;;;2.33;2.22;;;;;;;;;;4243821;28;20054;-59
2023/04/11 11:58:49;;;;;;;1.35;1.35;;;;;;;;;;4244260;28;20050;-59
2023/04/11 12:01:12;;;;;;;1.30;1.30;;;;;;;;;;4249312;28;20046;-60
2023/04/11 12:03:37;;;;;;;1.80;1.70;;;;;;;;;;4243734;28;20050;-60
2023/04/11 12:05:58;;;;;;;1.40;1.40;;;;;;;;;;4243401;28;20050;-59
2023/04/11 12:08:19;;;;;;;1.48;1.48;;;;;;;;;;4243971;28;20042;-59
2023/04/11 12:10:41;;;;;;;1.35;1.35;;;;;;;;;;4251537;28;20111;-59
2023/04/11 12:13:01;;;;;;;1.30;1.30;;;;;;;;;;4243826;28;20050;-60
2023/04/11 12:15:23;;;;;;;1.30;1.30;;;;;;;;;;4241991;28;20235;-59
2023/04/11 12:17:47;;;;;;;1.55;1.55;;;;;;;;;;4249762;28;20092;-60
2023/04/11 12:20:09;;;;;;;2.85;1.63;;;;;;;;;;4244803;28;20133;-60
2023/04/11 12:22:29;;;;;;;1.77;1.50;;;;;;;;;;4249280;28;20396;-59
2023/04/11 12:24:51;;;;;;;1.48;1.48;;;;;;;;;;4244954;28;20067;-59
2023/04/11 12:27:12;;;;;;;1.50;1.48;;;;;;;;;;4248594;28;20137;-59
2023/04/11 12:29:32;;;;;;;2.70;1.70;;;;;;;;;;4250178;28;20088;-60
2023/04/11 12:31:52;;;;;;;3.70;3.50;;;;;;;;;;4247419;28;20053;-59
2023/04/11 12:34:12;;;;;;;2.42;1.38;;;;;;;;;;4247851;28;20046;-60
2023/04/11 12:36:35;;;;;;;1.40;1.30;;;;;;;;;;4248086;27;20043;-60
2023/04/11 12:38:55;;;;;;;1.38;1.38;;;;;;;;;;4242166;28;20075;-60
2023/04/11 12:41:15;;;;;;;1.38;1.38;;;;;;;;;;4251374;28;20095;-59
2023/04/11 12:43:52;;;;;;;1.58;1.58;;;;;;;;;;4249663;28;20084;-59
2023/04/11 12:46:12;;;;;;;2.35;2.35;;;;;;;;;;4246303;28;20050;-59
2023/04/11 12:48:32;;;;;;;1.83;1.83;;;;;;;;;;4247599;28;20061;-59
2023/04/11 12:50:52;;;;;;;1.70;1.70;;;;;;;;;;4243422;28;20057;-60
2023/04/11 12:53:12;;;;;;;1.40;1.40;;;;;;;;;;4250463;28;20042;-60
2023/04/11 12:55:33;;;;;;;1.98;1.55;;;;;;;;;;4249006;28;20385;-59
2023/04/11 12:57:56;;;;;;;1.10;1.10;;;;;;;;;;4248933;28;20260;-59
2023/04/11 13:00:16;;;;;;;4.38;1.45;;;;;;;;;;4247730;28;20045;-60
2023/04/11 13:02:37;;;;;;;1.67;1.60;;;;;;;;;;4238906;28;20047;-59
2023/04/11 13:05:05;;;;;;;1.40;1.38;;;;;;;;;;4244353;28;20037;-59
2023/04/11 13:07:26;;;;;;;1.30;1.30;;;;;;;;;;4247605;28;20046;-60
2023/04/11 13:09:47;;;;;;;1.52;1.42;;;;;;;;;;4240990;28;20047;-60
2023/04/11 13:12:08;;;;;;;1.33;1.30;;;;;;;;;;4243970;28;20366;-59
2023/04/11 13:14:28;;;;;;;1.23;1.20;;;;;;;;;;4246552;28;20395;-59
2023/04/11 13:16:48;;;;;;;1.30;1.20;;;;;;;;;;4245247;28;20231;-59
2023/04/11 13:19:08;;;;;;;1.30;1.30;;;;;;;;;;4241925;28;20054;-60
2023/04/11 13:21:30;;;;;;;1.30;1.30;;;;;;;;;;4246264;28;20160;-60
2023/04/11 13:23:50;;;;;;;1.30;1.30;;;;;;;;;;4245258;28;20049;-60
2023/04/11 13:26:11;;;;;;;1.10;1.10;;;;;;;;;;4246258;28;20077;-60
2023/04/11 13:28:33;;;;;;;1.05;1.05;;;;;;;;;;4248872;28;20246;-60
2023/04/11 13:30:54;;;;;;;1.10;1.10;;;;;;;;;;4248024;28;20046;-60
2023/04/11 13:33:15;;;;;;;1.38;1.23;;;;;;;;;;4243512;28;20085;-60
2023/04/11 13:35:35;;;;;;;1.20;1.20;;;;;;;;;;4248123;27;20073;-60
2023/04/11 13:37:55;;;;;;;1.50;1.50;;;;;;;;;;4246658;28;20070;-60
2023/04/11 13:40:15;;;;;;;1.13;1.13;;;;;;;;;;4247318;28;20079;-59
2023/04/11 13:42:35;;;;;;;1.15;1.05;;;;;;;;;;4241956;28;20047;-59
2023/04/11 13:44:56;;;;;;;2.17;1.20;;;;;;;;;;4246661;28;20070;-60
2023/04/11 13:47:16;;;;;;;1.45;1.35;;;;;;;;;;4248080;28;20112;-59
2023/04/11 13:49:36;;;;;;;1.73;1.40;;;;;;;;;;4245757;28;20051;-59
2023/04/11 13:51:56;;;;;;;1.38;1.20;;;;;;;;;;4243145;28;20053;-59
2023/04/11 13:54:16;;;;;;;1.10;1.10;;;;;;;;;;4246819;28;20055;-59
2023/04/11 13:56:37;;;;;;;1.27;1.27;;;;;;;;;;4246363;28;20046;-60